Terminal Aerodrome Forecast
Issued by NWS Jackson, MS

Home | Current Version | Previous Version | Text Only | Print | Product List | Glossary On
Versions: 1 2 3 4 5 6 7 8 9 10 11 12 13 14 15
000
FTUS44 KJAN 221720
TAFHBG
TAF
KHBG 221720Z 2218/2318 21010G16KT P6SM VCSH BKN014 OVC025
     FM221900 23010G16KT P6SM VCSH OVC035
     FM222200 27006KT P6SM FEW250
     FM231200 32008KT P6SM BKN250=

USA.gov is the U.S. government's official web portal to all federal, state and local government web resources and services.